Wakefield, VA

8:27 AM EST on February 08, 2016 (GMT -0500)
Main Street ... Wakefield | | Change Station
CLOSE
Current Station
Personal Weather Station
Location: Wakefield, VA
Elevation: 118 ft
Nearby Weather Stations

Elev 118 ft 36.97 °N, 76.99 °W | Updated 23 seconds ago

Clear
Clear
39.4 °F
Feels Like 36 °F
N
4.7
Wind Variable Wind from NE

Today
High -- | Low -- °F
--% Chance of Precip.
Yesterday
High -- | Low -- °F
Precip. -- in
Pressure 29.82 in
Visibility 10.0 miles
Clouds Clear
Windchill 36 °F
Dew Point 25 °F
Humidity 57%
Rainfall 0.00 in
Snow Depth Not available.
7:04 AM 5:40 PM
Waning Crescent, 0% visible
METAR KAKQ 081254Z AUTO 00000KT 10SM CLR 02/M05 A2981 RMK AO2 SLP096 T00171050 TSNO
Pressure 29.82 in
Visibility 10.0 miles
Clouds Clear
Windchill 36 °F
Dew Point 25 °F
Humidity 57%
Rainfall 0.00 in
Snow Depth Not available.
7:04 AM 5:40 PM
Waning Crescent, 0% visible
METAR KAKQ 081254Z AUTO 00000KT 10SM CLR 02/M05 A2981 RMK AO2 SLP096 T00171050 TSNO

10-Day Weather Forecast

Almanac

Astronomy

Feb. 08, 2016 Rise Set
Actual Time
Civil Twilight
Nautical Twilight
Astronomical Twilight
Moon
Length of Visible Light
Length of Day
Tomorrow will be .
, % of the Moon is Illuminated

Today's Extremes

State Highs State Lows

Community

WunderPhotos

Upload Photos

1,891,434 photos uploaded!

WunderBlog® & News

Nearby

Air Quality

  Air Quality AQ Index Pollutant
Not available.

Snow Depth

Station Depth Elevation

Earthquake Activity

City Distance Mag. Time & Date
Minimum magnitude displayed is 2.5.

Coastal Water Temperatures

Place Temperature

Stations

Nearby Weather Stations

Station Location Temp. Windchill Dew Point Humidity Wind Precip. Elev Updated Type
                   

Watches & Warnings

There are currently no watches in effect.